sensor_id;sensor_type;location;lat;lon;timestamp;P1;durP1;ratioP1;P2;durP2;ratioP2
51467;SDS011;37545;45.302;-122.946;2023-03-01T00:01:25;0.10;;;0.10;;
51467;SDS011;37545;45.302;-122.946;2023-03-01T00:03:58;0.15;;;0.15;;
51467;SDS011;37545;45.302;-122.946;2023-03-01T00:06:26;1.67;;;0.20;;
51467;SDS011;37545;45.302;-122.946;2023-03-01T00:08:55;0.20;;;0.20;;
51467;SDS011;37545;45.302;-122.946;2023-03-01T00:11:25;1.45;;;0.10;;
51467;SDS011;37545;45.302;-122.946;2023-03-01T00:13:54;0.10;;;0.10;;
51467;SDS011;37545;45.302;-122.946;2023-03-01T00:16:24;0.30;;;0.03;;
51467;SDS011;37545;45.302;-122.946;2023-03-01T00:18:55;0.10;;;0.10;;
51467;SDS011;37545;45.302;-122.946;2023-03-01T00:21:25;0.10;;;0.00;;
51467;SDS011;37545;45.302;-122.946;2023-03-01T00:23:54;0.00;;;0.00;;
51467;SDS011;37545;45.302;-122.946;2023-03-01T00:26:24;0.00;;;0.00;;
51467;SDS011;37545;45.302;-122.946;2023-03-01T00:28:53;0.55;;;0.28;;
51467;SDS011;37545;45.302;-122.946;2023-03-01T00:31:23;0.45;;;0.20;;
51467;SDS011;37545;45.302;-122.946;2023-03-01T00:33:53;0.30;;;0.20;;
51467;SDS011;37545;45.302;-122.946;2023-03-01T00:36:26;0.52;;;0.20;;
51467;SDS011;37545;45.302;-122.946;2023-03-01T00:38:56;0.30;;;0.20;;
51467;SDS011;37545;45.302;-122.946;2023-03-01T00:41:25;2.10;;;0.30;;
51467;SDS011;37545;45.302;-122.946;2023-03-01T00:43:54;0.30;;;0.22;;
51467;SDS011;37545;45.302;-122.946;2023-03-01T00:46:24;0.10;;;0.10;;
51467;SDS011;37545;45.302;-122.946;2023-03-01T00:48:55;0.80;;;0.20;;
51467;SDS011;37545;45.302;-122.946;2023-03-01T00:51:32;0.75;;;0.22;;
51467;SDS011;37545;45.302;-122.946;2023-03-01T00:54:01;3.90;;;0.47;;
51467;SDS011;37545;45.302;-122.946;2023-03-01T00:56:30;0.22;;;0.20;;
51467;SDS011;37545;45.302;-122.946;2023-03-01T00:58:59;1.50;;;0.70;;
51467;SDS011;37545;45.302;-122.946;2023-03-01T01:01:28;0.32;;;0.32;;
51467;SDS011;37545;45.302;-122.946;2023-03-01T01:03:58;1.10;;;0.47;;
51467;SDS011;37545;45.302;-122.946;2023-03-01T01:06:29;0.30;;;0.30;;
51467;SDS011;37545;45.302;-122.946;2023-03-01T01:09:01;0.38;;;0.30;;
51467;SDS011;37545;45.302;-122.946;2023-03-01T01:11:30;1.65;;;0.88;;
51467;SDS011;37545;45.302;-122.946;2023-03-01T01:13:59;1.55;;;0.60;;
51467;SDS011;37545;45.302;-122.946;2023-03-01T01:16:28;1.02;;;0.50;;
51467;SDS011;37545;45.302;-122.946;2023-03-01T01:18:57;0.73;;;0.38;;
51467;SDS011;37545;45.302;-122.946;2023-03-01T01:21:26;0.30;;;0.20;;
51467;SDS011;37545;45.302;-122.946;2023-03-01T01:23:57;0.65;;;0.30;;
51467;SDS011;37545;45.302;-122.946;2023-03-01T01:26:26;0.90;;;0.43;;
51467;SDS011;37545;45.302;-122.946;2023-03-01T01:28:56;0.60;;;0.50;;
51467;SDS011;37545;45.302;-122.946;2023-03-01T01:31:25;3.90;;;0.40;;
51467;SDS011;37545;45.302;-122.946;2023-03-01T01:33:54;0.70;;;0.47;;
51467;SDS011;37545;45.302;-122.946;2023-03-01T01:36:23;0.57;;;0.50;;
51467;SDS011;37545;45.302;-122.946;2023-03-01T01:38:52;0.95;;;0.45;;
51467;SDS011;37545;45.302;-122.946;2023-03-01T01:41:23;2.25;;;0.55;;
51467;SDS011;37545;45.302;-122.946;2023-03-01T01:46:40;0.40;;;0.35;;
51467;SDS011;37545;45.302;-122.946;2023-03-01T01:49:14;0.52;;;0.47;;
51467;SDS011;37545;45.302;-122.946;2023-03-01T01:51:56;1.23;;;0.40;;
51467;SDS011;37545;45.302;-122.946;2023-03-01T01:54:36;0.30;;;0.30;;
51467;SDS011;37545;45.302;-122.946;2023-03-01T01:57:14;0.93;;;0.60;;
51467;SDS011;37545;45.302;-122.946;2023-03-01T01:59:47;0.88;;;0.50;;
51467;SDS011;37545;45.302;-122.946;2023-03-01T02:02:18;0.55;;;0.50;;
51467;SDS011;37545;45.302;-122.946;2023-03-01T02:04:47;0.80;;;0.77;;
51467;SDS011;37545;45.302;-122.946;2023-03-01T02:07:20;0.88;;;0.80;;
51467;SDS011;37545;45.302;-122.946;2023-03-01T02:09:51;2.80;;;0.80;;
51467;SDS011;37545;45.302;-122.946;2023-03-01T02:12:23;1.30;;;0.70;;
51467;SDS011;37545;45.302;-122.946;2023-03-01T02:14:53;1.10;;;1.00;;
51467;SDS011;37545;45.302;-122.946;2023-03-01T02:17:21;2.25;;;1.00;;
51467;SDS011;37545;45.302;-122.946;2023-03-01T02:19:54;2.67;;;0.82;;
51467;SDS011;37545;45.302;-122.946;2023-03-01T02:22:32;1.33;;;0.85;;
51467;SDS011;37545;45.302;-122.946;2023-03-01T02:25:08;1.80;;;0.88;;
51467;SDS011;37545;45.302;-122.946;2023-03-01T02:27:47;2.47;;;1.30;;
51467;SDS011;37545;45.302;-122.946;2023-03-01T02:30:22;1.45;;;0.98;;
51467;SDS011;37545;45.302;-122.946;2023-03-01T02:32:53;1.52;;;0.93;;
51467;SDS011;37545;45.302;-122.946;2023-03-01T02:35:28;4.50;;;1.10;;
51467;SDS011;37545;45.302;-122.946;2023-03-01T02:38:00;1.58;;;1.00;;
51467;SDS011;37545;45.302;-122.946;2023-03-01T02:40:30;1.45;;;1.10;;
51467;SDS011;37545;45.302;-122.946;2023-03-01T02:43:02;2.30;;;1.35;;
51467;SDS011;37545;45.302;-122.946;2023-03-01T02:45:37;2.28;;;1.45;;
51467;SDS011;37545;45.302;-122.946;2023-03-01T02:48:10;1.83;;;1.58;;
51467;SDS011;37545;45.302;-122.946;2023-03-01T02:50:44;1.75;;;1.00;;
51467;SDS011;37545;45.302;-122.946;2023-03-01T02:53:21;3.08;;;1.40;;
51467;SDS011;37545;45.302;-122.946;2023-03-01T02:55:56;1.70;;;1.38;;
51467;SDS011;37545;45.302;-122.946;2023-03-01T02:58:24;1.75;;;1.17;;
51467;SDS011;37545;45.302;-122.946;2023-03-01T03:00:54;1.83;;;1.38;;
51467;SDS011;37545;45.302;-122.946;2023-03-01T03:03:26;4.63;;;1.30;;
51467;SDS011;37545;45.302;-122.946;2023-03-01T03:05:55;1.58;;;1.38;;
51467;SDS011;37545;45.302;-122.946;2023-03-01T03:08:23;6.00;;;1.77;;
51467;SDS011;37545;45.302;-122.946;2023-03-01T03:10:52;5.10;;;1.55;;
51467;SDS011;37545;45.302;-122.946;2023-03-01T03:13:20;1.70;;;1.30;;
51467;SDS011;37545;45.302;-122.946;2023-03-01T03:15:55;3.03;;;1.25;;
51467;SDS011;37545;45.302;-122.946;2023-03-01T03:18:24;1.92;;;1.52;;
51467;SDS011;37545;45.302;-122.946;2023-03-01T03:20:53;1.80;;;1.20;;
51467;SDS011;37545;45.302;-122.946;2023-03-01T03:23:22;2.67;;;1.30;;
51467;SDS011;37545;45.302;-122.946;2023-03-01T03:25:50;3.65;;;1.58;;
51467;SDS011;37545;45.302;-122.946;2023-03-01T03:28:19;1.80;;;1.00;;
51467;SDS011;37545;45.302;-122.946;2023-03-01T03:30:48;2.28;;;1.50;;
51467;SDS011;37545;45.302;-122.946;2023-03-01T03:33:18;2.20;;;1.60;;
51467;SDS011;37545;45.302;-122.946;2023-03-01T03:35:47;3.08;;;1.55;;
51467;SDS011;37545;45.302;-122.946;2023-03-01T03:38:17;3.28;;;1.60;;
51467;SDS011;37545;45.302;-122.946;2023-03-01T03:40:48;3.42;;;1.02;;
51467;SDS011;37545;45.302;-122.946;2023-03-01T03:43:18;2.92;;;1.48;;
51467;SDS011;37545;45.302;-122.946;2023-03-01T03:45:49;3.33;;;1.45;;
51467;SDS011;37545;45.302;-122.946;2023-03-01T03:48:21;2.13;;;1.50;;
51467;SDS011;37545;45.302;-122.946;2023-03-01T03:50:50;2.33;;;1.67;;
51467;SDS011;37545;45.302;-122.946;2023-03-01T03:53:19;1.35;;;1.08;;
51467;SDS011;37545;45.302;-122.946;2023-03-01T03:55:48;1.70;;;1.23;;
51467;SDS011;37545;45.302;-122.946;2023-03-01T03:58:17;2.42;;;1.48;;
51467;SDS011;37545;45.302;-122.946;2023-03-01T04:00:48;2.13;;;1.45;;
51467;SDS011;37545;45.302;-122.946;2023-03-01T04:03:18;2.95;;;1.83;;
51467;SDS011;37545;45.302;-122.946;2023-03-01T04:05:49;2.88;;;1.30;;
51467;SDS011;37545;45.302;-122.946;2023-03-01T04:08:18;6.18;;;1.73;;
51467;SDS011;37545;45.302;-122.946;2023-03-01T04:10:57;2.92;;;1.38;;
51467;SDS011;37545;45.302;-122.946;2023-03-01T04:13:55;2.50;;;1.65;;
51467;SDS011;37545;45.302;-122.946;2023-03-01T04:16:31;2.42;;;1.23;;
51467;SDS011;37545;45.302;-122.946;2023-03-01T04:19:00;1.75;;;1.20;;
51467;SDS011;37545;45.302;-122.946;2023-03-01T04:21:30;1.48;;;1.13;;
51467;SDS011;37545;45.302;-122.946;2023-03-01T04:23:59;2.58;;;1.52;;
51467;SDS011;37545;45.302;-122.946;2023-03-01T04:26:29;2.63;;;1.15;;
51467;SDS011;37545;45.302;-122.946;2023-03-01T04:28:57;1.30;;;0.93;;
51467;SDS011;37545;45.302;-122.946;2023-03-01T04:31:26;1.73;;;1.00;;
51467;SDS011;37545;45.302;-122.946;2023-03-01T04:33:55;3.63;;;1.27;;
51467;SDS011;37545;45.302;-122.946;2023-03-01T04:36:24;1.20;;;0.90;;
51467;SDS011;37545;45.302;-122.946;2023-03-01T04:38:56;1.40;;;1.13;;
51467;SDS011;37545;45.302;-122.946;2023-03-01T04:41:25;2.70;;;1.25;;
51467;SDS011;37545;45.302;-122.946;2023-03-01T04:43:53;3.10;;;1.42;;
51467;SDS011;37545;45.302;-122.946;2023-03-01T04:46:22;2.28;;;1.23;;
51467;SDS011;37545;45.302;-122.946;2023-03-01T04:48:50;2.47;;;1.35;;
51467;SDS011;37545;45.302;-122.946;2023-03-01T04:51:19;4.43;;;1.20;;
51467;SDS011;37545;45.302;-122.946;2023-03-01T04:53:48;2.65;;;1.52;;
51467;SDS011;37545;45.302;-122.946;2023-03-01T04:56:18;3.30;;;1.50;;
51467;SDS011;37545;45.302;-122.946;2023-03-01T04:58:48;3.83;;;1.65;;
51467;SDS011;37545;45.302;-122.946;2023-03-01T05:01:17;1.73;;;1.38;;
51467;SDS011;37545;45.302;-122.946;2023-03-01T05:03:47;2.33;;;1.10;;
51467;SDS011;37545;45.302;-122.946;2023-03-01T05:06:17;4.97;;;1.10;;
51467;SDS011;37545;45.302;-122.946;2023-03-01T05:08:47;1.58;;;0.98;;
51467;SDS011;37545;45.302;-122.946;2023-03-01T05:11:15;1.00;;;0.75;;
51467;SDS011;37545;45.302;-122.946;2023-03-01T05:13:45;2.33;;;0.77;;
51467;SDS011;37545;45.302;-122.946;2023-03-01T05:16:15;1.42;;;0.82;;
51467;SDS011;37545;45.302;-122.946;2023-03-01T05:18:45;1.98;;;1.05;;
51467;SDS011;37545;45.302;-122.946;2023-03-01T05:21:16;1.42;;;0.82;;
51467;SDS011;37545;45.302;-122.946;2023-03-01T05:23:44;1.33;;;0.82;;
51467;SDS011;37545;45.302;-122.946;2023-03-01T05:26:13;2.50;;;1.42;;
51467;SDS011;37545;45.302;-122.946;2023-03-01T05:28:45;0.80;;;0.60;;
51467;SDS011;37545;45.302;-122.946;2023-03-01T05:31:14;2.03;;;1.00;;
51467;SDS011;37545;45.302;-122.946;2023-03-01T05:33:42;1.13;;;0.88;;
51467;SDS011;37545;45.302;-122.946;2023-03-01T05:36:11;2.08;;;1.02;;
51467;SDS011;37545;45.302;-122.946;2023-03-01T05:38:40;2.22;;;1.05;;
51467;SDS011;37545;45.302;-122.946;2023-03-01T05:41:13;1.58;;;1.10;;
51467;SDS011;37545;45.302;-122.946;2023-03-01T05:43:42;2.45;;;1.15;;
51467;SDS011;37545;45.302;-122.946;2023-03-01T05:46:13;2.15;;;1.20;;
51467;SDS011;37545;45.302;-122.946;2023-03-01T05:48:41;2.28;;;1.20;;
51467;SDS011;37545;45.302;-122.946;2023-03-01T05:51:10;5.88;;;1.75;;
51467;SDS011;37545;45.302;-122.946;2023-03-01T05:53:39;6.63;;;1.38;;
51467;SDS011;37545;45.302;-122.946;2023-03-01T05:56:07;2.38;;;1.13;;
51467;SDS011;37545;45.302;-122.946;2023-03-01T05:58:36;1.33;;;1.02;;
51467;SDS011;37545;45.302;-122.946;2023-03-01T06:01:10;2.38;;;1.15;;
51467;SDS011;37545;45.302;-122.946;2023-03-01T06:03:40;2.90;;;1.25;;
51467;SDS011;37545;45.302;-122.946;2023-03-01T06:06:08;4.00;;;1.00;;
51467;SDS011;37545;45.302;-122.946;2023-03-01T06:08:37;2.40;;;1.13;;
51467;SDS011;37545;45.302;-122.946;2023-03-01T06:11:05;2.97;;;1.15;;
51467;SDS011;37545;45.302;-122.946;2023-03-01T06:13:34;1.70;;;1.20;;
51467;SDS011;37545;45.302;-122.946;2023-03-01T06:16:04;1.77;;;0.90;;
51467;SDS011;37545;45.302;-122.946;2023-03-01T06:18:35;1.63;;;1.08;;
51467;SDS011;37545;45.302;-122.946;2023-03-01T06:21:04;5.28;;;1.30;;
51467;SDS011;37545;45.302;-122.946;2023-03-01T06:23:33;0.80;;;0.65;;
51467;SDS011;37545;45.302;-122.946;2023-03-01T06:26:05;2.38;;;1.20;;
51467;SDS011;37545;45.302;-122.946;2023-03-01T06:28:34;2.67;;;1.13;;
51467;SDS011;37545;45.302;-122.946;2023-03-01T06:31:03;3.83;;;1.50;;
51467;SDS011;37545;45.302;-122.946;2023-03-01T06:33:35;2.90;;;0.95;;
51467;SDS011;37545;45.302;-122.946;2023-03-01T06:36:04;3.78;;;1.38;;
51467;SDS011;37545;45.302;-122.946;2023-03-01T06:38:33;1.45;;;1.10;;
51467;SDS011;37545;45.302;-122.946;2023-03-01T06:41:02;2.97;;;1.08;;
51467;SDS011;37545;45.302;-122.946;2023-03-01T06:43:31;3.13;;;1.40;;
51467;SDS011;37545;45.302;-122.946;2023-03-01T06:45:59;1.90;;;1.10;;
51467;SDS011;37545;45.302;-122.946;2023-03-01T06:48:30;2.65;;;1.30;;
51467;SDS011;37545;45.302;-122.946;2023-03-01T06:51:01;2.15;;;1.20;;
51467;SDS011;37545;45.302;-122.946;2023-03-01T06:53:29;2.13;;;1.00;;
51467;SDS011;37545;45.302;-122.946;2023-03-01T06:56:04;6.88;;;1.20;;
51467;SDS011;37545;45.302;-122.946;2023-03-01T06:58:33;3.50;;;1.13;;
51467;SDS011;37545;45.302;-122.946;2023-03-01T07:01:05;1.38;;;1.00;;
51467;SDS011;37545;45.302;-122.946;2023-03-01T07:03:34;1.73;;;1.00;;
51467;SDS011;37545;45.302;-122.946;2023-03-01T07:06:04;1.35;;;1.13;;
51467;SDS011;37545;45.302;-122.946;2023-03-01T07:08:33;2.78;;;1.05;;
51467;SDS011;37545;45.302;-122.946;2023-03-01T07:11:02;2.50;;;1.08;;
51467;SDS011;37545;45.302;-122.946;2023-03-01T07:13:31;3.42;;;1.38;;
51467;SDS011;37545;45.302;-122.946;2023-03-01T07:16:00;3.22;;;1.02;;
51467;SDS011;37545;45.302;-122.946;2023-03-01T07:18:28;1.48;;;0.75;;
51467;SDS011;37545;45.302;-122.946;2023-03-01T07:20:57;1.55;;;0.80;;
51467;SDS011;37545;45.302;-122.946;2023-03-01T07:23:27;1.30;;;0.82;;
51467;SDS011;37545;45.302;-122.946;2023-03-01T07:25:56;1.23;;;0.93;;
51467;SDS011;37545;45.302;-122.946;2023-03-01T07:28:25;2.33;;;0.73;;
51467;SDS011;37545;45.302;-122.946;2023-03-01T07:30:54;2.50;;;1.40;;
51467;SDS011;37545;45.302;-122.946;2023-03-01T07:33:27;1.63;;;0.93;;
51467;SDS011;37545;45.302;-122.946;2023-03-01T07:35:56;3.53;;;1.10;;
51467;SDS011;37545;45.302;-122.946;2023-03-01T07:38:28;4.45;;;1.70;;
51467;SDS011;37545;45.302;-122.946;2023-03-01T07:40:57;1.92;;;1.20;;
51467;SDS011;37545;45.302;-122.946;2023-03-01T07:43:26;2.03;;;0.93;;
51467;SDS011;37545;45.302;-122.946;2023-03-01T07:45:57;1.05;;;0.77;;
51467;SDS011;37545;45.302;-122.946;2023-03-01T07:48:27;2.85;;;1.23;;
51467;SDS011;37545;45.302;-122.946;2023-03-01T07:50:57;2.90;;;1.20;;
51467;SDS011;37545;45.302;-122.946;2023-03-01T07:53:28;1.52;;;0.88;;
51467;SDS011;37545;45.302;-122.946;2023-03-01T07:56:03;1.80;;;0.90;;
51467;SDS011;37545;45.302;-122.946;2023-03-01T08:01:01;3.30;;;1.17;;
51467;SDS011;37545;45.302;-122.946;2023-03-01T08:03:30;1.52;;;0.82;;
51467;SDS011;37545;45.302;-122.946;2023-03-01T08:06:00;4.35;;;1.80;;
51467;SDS011;37545;45.302;-122.946;2023-03-01T08:08:31;3.80;;;1.27;;
51467;SDS011;37545;45.302;-122.946;2023-03-01T08:11:00;2.78;;;1.38;;
51467;SDS011;37545;45.302;-122.946;2023-03-01T08:13:30;6.13;;;2.00;;
51467;SDS011;37545;45.302;-122.946;2023-03-01T08:16:00;1.75;;;1.20;;
51467;SDS011;37545;45.302;-122.946;2023-03-01T08:18:30;2.35;;;1.25;;
51467;SDS011;37545;45.302;-122.946;2023-03-01T08:21:01;3.33;;;1.10;;
51467;SDS011;37545;45.302;-122.946;2023-03-01T08:23:32;5.72;;;2.30;;
51467;SDS011;37545;45.302;-122.946;2023-03-01T08:26:05;10.18;;;2.75;;
51467;SDS011;37545;45.302;-122.946;2023-03-01T08:28:35;6.03;;;2.85;;
51467;SDS011;37545;45.302;-122.946;2023-03-01T08:31:13;2.97;;;1.75;;
51467;SDS011;37545;45.302;-122.946;2023-03-01T08:33:43;5.10;;;2.25;;
51467;SDS011;37545;45.302;-122.946;2023-03-01T08:36:16;4.78;;;2.28;;
51467;SDS011;37545;45.302;-122.946;2023-03-01T08:38:48;4.10;;;2.08;;
51467;SDS011;37545;45.302;-122.946;2023-03-01T08:41:17;4.15;;;2.05;;
51467;SDS011;37545;45.302;-122.946;2023-03-01T08:43:45;1.10;;;0.70;;
51467;SDS011;37545;45.302;-122.946;2023-03-01T08:46:14;4.88;;;2.78;;
51467;SDS011;37545;45.302;-122.946;2023-03-01T08:48:43;1.02;;;0.57;;
51467;SDS011;37545;45.302;-122.946;2023-03-01T08:51:12;4.22;;;1.48;;
51467;SDS011;37545;45.302;-122.946;2023-03-01T08:53:42;3.15;;;1.20;;
51467;SDS011;37545;45.302;-122.946;2023-03-01T08:56:12;1.63;;;1.20;;
51467;SDS011;37545;45.302;-122.946;2023-03-01T08:58:43;4.30;;;1.83;;
51467;SDS011;37545;45.302;-122.946;2023-03-01T09:01:13;5.93;;;2.35;;
51467;SDS011;37545;45.302;-122.946;2023-03-01T09:03:43;3.17;;;1.75;;
51467;SDS011;37545;45.302;-122.946;2023-03-01T09:06:13;2.25;;;1.20;;
51467;SDS011;37545;45.302;-122.946;2023-03-01T09:08:43;6.97;;;1.88;;
51467;SDS011;37545;45.302;-122.946;2023-03-01T09:11:16;4.57;;;2.38;;
51467;SDS011;37545;45.302;-122.946;2023-03-01T09:13:46;7.37;;;2.50;;
51467;SDS011;37545;45.302;-122.946;2023-03-01T09:16:16;8.38;;;1.88;;
51467;SDS011;37545;45.302;-122.946;2023-03-01T09:18:48;3.47;;;1.85;;
51467;SDS011;37545;45.302;-122.946;2023-03-01T09:21:18;6.03;;;2.50;;
51467;SDS011;37545;45.302;-122.946;2023-03-01T09:23:48;5.28;;;2.50;;
51467;SDS011;37545;45.302;-122.946;2023-03-01T09:26:19;6.57;;;2.28;;
51467;SDS011;37545;45.302;-122.946;2023-03-01T09:28:49;6.45;;;2.38;;
51467;SDS011;37545;45.302;-122.946;2023-03-01T09:31:20;5.85;;;2.28;;
51467;SDS011;37545;45.302;-122.946;2023-03-01T09:33:50;4.78;;;2.30;;
51467;SDS011;37545;45.302;-122.946;2023-03-01T09:36:20;5.35;;;2.63;;
51467;SDS011;37545;45.302;-122.946;2023-03-01T09:38:51;5.47;;;2.30;;
51467;SDS011;37545;45.302;-122.946;2023-03-01T09:41:35;6.28;;;2.13;;
51467;SDS011;37545;45.302;-122.946;2023-03-01T09:44:13;4.45;;;1.90;;
51467;SDS011;37545;45.302;-122.946;2023-03-01T09:46:51;7.00;;;3.20;;
51467;SDS011;37545;45.302;-122.946;2023-03-01T09:49:21;7.25;;;2.88;;
51467;SDS011;37545;45.302;-122.946;2023-03-01T09:51:56;9.82;;;3.63;;
51467;SDS011;37545;45.302;-122.946;2023-03-01T09:54:28;12.60;;;3.13;;
51467;SDS011;37545;45.302;-122.946;2023-03-01T09:57:05;7.20;;;3.75;;
51467;SDS011;37545;45.302;-122.946;2023-03-01T09:59:44;9.45;;;5.10;;
51467;SDS011;37545;45.302;-122.946;2023-03-01T10:05:05;18.85;;;7.53;;
51467;SDS011;37545;45.302;-122.946;2023-03-01T10:07:43;12.32;;;5.35;;
51467;SDS011;37545;45.302;-122.946;2023-03-01T10:10:23;5.90;;;3.33;;
51467;SDS011;37545;45.302;-122.946;2023-03-01T10:12:57;8.45;;;2.70;;
51467;SDS011;37545;45.302;-122.946;2023-03-01T10:15:30;7.93;;;2.15;;
51467;SDS011;37545;45.302;-122.946;2023-03-01T10:18:04;3.85;;;1.42;;
51467;SDS011;37545;45.302;-122.946;2023-03-01T10:20:41;4.22;;;1.50;;
51467;SDS011;37545;45.302;-122.946;2023-03-01T10:23:14;3.45;;;1.58;;
51467;SDS011;37545;45.302;-122.946;2023-03-01T10:25:45;1.98;;;1.48;;
51467;SDS011;37545;45.302;-122.946;2023-03-01T10:28:26;5.22;;;1.50;;
51467;SDS011;37545;45.302;-122.946;2023-03-01T10:31:02;2.75;;;2.00;;
51467;SDS011;37545;45.302;-122.946;2023-03-01T10:33:32;4.32;;;1.80;;
51467;SDS011;37545;45.302;-122.946;2023-03-01T10:36:05;4.65;;;1.88;;
51467;SDS011;37545;45.302;-122.946;2023-03-01T10:38:46;3.38;;;2.15;;
51467;SDS011;37545;45.302;-122.946;2023-03-01T10:41:17;5.10;;;2.25;;
51467;SDS011;37545;45.302;-122.946;2023-03-01T10:43:51;5.38;;;2.47;;
51467;SDS011;37545;45.302;-122.946;2023-03-01T10:46:25;6.20;;;3.03;;
51467;SDS011;37545;45.302;-122.946;2023-03-01T10:49:10;8.73;;;2.60;;
51467;SDS011;37545;45.302;-122.946;2023-03-01T10:51:42;4.80;;;2.78;;
51467;SDS011;37545;45.302;-122.946;2023-03-01T10:54:16;3.58;;;1.75;;
51467;SDS011;37545;45.302;-122.946;2023-03-01T10:56:47;3.70;;;1.85;;
51467;SDS011;37545;45.302;-122.946;2023-03-01T10:59:27;4.47;;;1.83;;
51467;SDS011;37545;45.302;-122.946;2023-03-01T11:07:27;6.20;;;2.20;;
51467;SDS011;37545;45.302;-122.946;2023-03-01T11:09:56;3.28;;;2.45;;
51467;SDS011;37545;45.302;-122.946;2023-03-01T11:12:24;5.38;;;2.15;;
51467;SDS011;37545;45.302;-122.946;2023-03-01T11:14:56;6.55;;;1.98;;
51467;SDS011;37545;45.302;-122.946;2023-03-01T11:17:27;4.30;;;1.88;;
51467;SDS011;37545;45.302;-122.946;2023-03-01T11:20:00;4.10;;;2.13;;
51467;SDS011;37545;45.302;-122.946;2023-03-01T11:22:32;6.05;;;2.85;;
51467;SDS011;37545;45.302;-122.946;2023-03-01T11:25:03;8.90;;;2.45;;
51467;SDS011;37545;45.302;-122.946;2023-03-01T11:27:32;4.90;;;2.22;;
51467;SDS011;37545;45.302;-122.946;2023-03-01T11:30:07;4.43;;;1.80;;
51467;SDS011;37545;45.302;-122.946;2023-03-01T11:32:47;3.65;;;1.75;;
51467;SDS011;37545;45.302;-122.946;2023-03-01T11:35:25;5.97;;;2.50;;
51467;SDS011;37545;45.302;-122.946;2023-03-01T11:37:58;6.07;;;2.35;;
51467;SDS011;37545;45.302;-122.946;2023-03-01T11:40:40;7.60;;;2.28;;
51467;SDS011;37545;45.302;-122.946;2023-03-01T11:43:14;5.10;;;1.52;;
51467;SDS011;37545;45.302;-122.946;2023-03-01T11:48:57;3.30;;;2.05;;
51467;SDS011;37545;45.302;-122.946;2023-03-01T11:51:38;1.90;;;1.33;;
51467;SDS011;37545;45.302;-122.946;2023-03-01T11:54:23;6.00;;;2.30;;
51467;SDS011;37545;45.302;-122.946;2023-03-01T11:57:01;3.25;;;2.00;;
51467;SDS011;37545;45.302;-122.946;2023-03-01T11:59:41;7.18;;;1.70;;
51467;SDS011;37545;45.302;-122.946;2023-03-01T12:02:32;8.05;;;1.60;;
51467;SDS011;37545;45.302;-122.946;2023-03-01T12:05:41;3.35;;;1.70;;
51467;SDS011;37545;45.302;-122.946;2023-03-01T12:08:31;8.15;;;1.75;;
51467;SDS011;37545;45.302;-122.946;2023-03-01T12:11:04;4.32;;;1.92;;
51467;SDS011;37545;45.302;-122.946;2023-03-01T12:13:55;3.08;;;1.23;;
51467;SDS011;37545;45.302;-122.946;2023-03-01T12:16:40;4.88;;;2.05;;
51467;SDS011;37545;45.302;-122.946;2023-03-01T12:19:30;3.15;;;1.42;;
51467;SDS011;37545;45.302;-122.946;2023-03-01T12:22:15;4.10;;;1.95;;
51467;SDS011;37545;45.302;-122.946;2023-03-01T12:24:57;6.03;;;2.22;;
51467;SDS011;37545;45.302;-122.946;2023-03-01T12:28:06;4.50;;;1.88;;
51467;SDS011;37545;45.302;-122.946;2023-03-01T12:30:56;4.82;;;1.52;;
51467;SDS011;37545;45.302;-122.946;2023-03-01T12:33:41;2.90;;;1.80;;
51467;SDS011;37545;45.302;-122.946;2023-03-01T12:36:24;4.05;;;2.03;;
51467;SDS011;37545;45.302;-122.946;2023-03-01T12:39:06;3.33;;;1.58;;
51467;SDS011;37545;45.302;-122.946;2023-03-01T12:41:46;5.25;;;1.95;;
51467;SDS011;37545;45.302;-122.946;2023-03-01T12:44:24;8.10;;;1.30;;
51467;SDS011;37545;45.302;-122.946;2023-03-01T12:47:08;2.75;;;1.00;;
51467;SDS011;37545;45.302;-122.946;2023-03-01T12:49:48;1.60;;;1.25;;
51467;SDS011;37545;45.302;-122.946;2023-03-01T12:52:22;0.95;;;0.82;;
51467;SDS011;37545;45.302;-122.946;2023-03-01T12:54:55;6.05;;;1.17;;
51467;SDS011;37545;45.302;-122.946;2023-03-01T12:57:28;1.48;;;1.02;;
51467;SDS011;37545;45.302;-122.946;2023-03-01T13:00:08;2.08;;;1.33;;
51467;SDS011;37545;45.302;-122.946;2023-03-01T13:02:52;3.67;;;1.48;;
51467;SDS011;37545;45.302;-122.946;2023-03-01T13:05:31;1.55;;;1.00;;
51467;SDS011;37545;45.302;-122.946;2023-03-01T13:08:11;2.45;;;1.45;;
51467;SDS011;37545;45.302;-122.946;2023-03-01T13:10:48;3.10;;;0.93;;
51467;SDS011;37545;45.302;-122.946;2023-03-01T13:13:21;4.10;;;1.52;;
51467;SDS011;37545;45.302;-122.946;2023-03-01T13:15:51;2.92;;;1.20;;
51467;SDS011;37545;45.302;-122.946;2023-03-01T13:18:29;2.58;;;1.00;;
51467;SDS011;37545;45.302;-122.946;2023-03-01T13:21:00;2.30;;;1.17;;
51467;SDS011;37545;45.302;-122.946;2023-03-01T13:23:34;3.28;;;0.80;;
51467;SDS011;37545;45.302;-122.946;2023-03-01T13:26:09;2.40;;;1.23;;
51467;SDS011;37545;45.302;-122.946;2023-03-01T13:28:40;4.40;;;1.40;;
51467;SDS011;37545;45.302;-122.946;2023-03-01T13:34:42;2.90;;;1.02;;
51467;SDS011;37545;45.302;-122.946;2023-03-01T13:37:22;3.25;;;1.35;;
51467;SDS011;37545;45.302;-122.946;2023-03-01T13:40:01;3.53;;;1.30;;
51467;SDS011;37545;45.302;-122.946;2023-03-01T13:42:42;3.95;;;1.92;;
51467;SDS011;37545;45.302;-122.946;2023-03-01T13:45:20;2.67;;;1.30;;
51467;SDS011;37545;45.302;-122.946;2023-03-01T13:47:53;2.67;;;1.15;;
51467;SDS011;37545;45.302;-122.946;2023-03-01T13:50:26;4.15;;;1.35;;
51467;SDS011;37545;45.302;-122.946;2023-03-01T13:53:01;3.20;;;1.67;;
51467;SDS011;37545;45.302;-122.946;2023-03-01T13:55:36;5.97;;;1.95;;
51467;SDS011;37545;45.302;-122.946;2023-03-01T13:58:16;6.53;;;2.42;;
51467;SDS011;37545;45.302;-122.946;2023-03-01T14:00:55;3.88;;;1.45;;
51467;SDS011;37545;45.302;-122.946;2023-03-01T14:03:25;3.33;;;1.38;;
51467;SDS011;37545;45.302;-122.946;2023-03-01T14:05:58;5.47;;;1.73;;
51467;SDS011;37545;45.302;-122.946;2023-03-01T14:08:29;4.50;;;1.98;;
51467;SDS011;37545;45.302;-122.946;2023-03-01T14:14:06;3.45;;;1.63;;
51467;SDS011;37545;45.302;-122.946;2023-03-01T14:16:53;1.35;;;1.10;;
51467;SDS011;37545;45.302;-122.946;2023-03-01T14:19:32;2.50;;;1.25;;
51467;SDS011;37545;45.302;-122.946;2023-03-01T14:22:03;4.13;;;1.67;;
51467;SDS011;37545;45.302;-122.946;2023-03-01T14:24:54;4.18;;;1.52;;
51467;SDS011;37545;45.302;-122.946;2023-03-01T14:27:23;5.53;;;1.27;;
51467;SDS011;37545;45.302;-122.946;2023-03-01T14:29:56;3.50;;;1.25;;
51467;SDS011;37545;45.302;-122.946;2023-03-01T14:32:26;5.65;;;1.70;;
51467;SDS011;37545;45.302;-122.946;2023-03-01T14:34:56;3.15;;;2.00;;
51467;SDS011;37545;45.302;-122.946;2023-03-01T14:37:27;12.63;;;2.35;;
51467;SDS011;37545;45.302;-122.946;2023-03-01T14:39:57;3.72;;;2.00;;
51467;SDS011;37545;45.302;-122.946;2023-03-01T14:42:28;5.45;;;2.58;;
51467;SDS011;37545;45.302;-122.946;2023-03-01T14:45:03;5.45;;;1.77;;
51467;SDS011;37545;45.302;-122.946;2023-03-01T14:50:05;7.85;;;1.95;;
51467;SDS011;37545;45.302;-122.946;2023-03-01T14:52:44;2.53;;;1.35;;
51467;SDS011;37545;45.302;-122.946;2023-03-01T14:55:15;6.88;;;1.83;;
51467;SDS011;37545;45.302;-122.946;2023-03-01T14:57:47;3.33;;;1.77;;
51467;SDS011;37545;45.302;-122.946;2023-03-01T15:00:20;6.00;;;2.13;;
51467;SDS011;37545;45.302;-122.946;2023-03-01T15:03:00;9.40;;;1.60;;
51467;SDS011;37545;45.302;-122.946;2023-03-01T15:05:39;3.55;;;2.08;;